createdAt,value
2022-08-17T00:00:42.958Z,23.93
2022-08-17T00:01:32.747Z,23.93
2022-08-17T00:02:32.529Z,23.93
2022-08-17T00:03:32.439Z,23.91
2022-08-17T00:04:31.400Z,23.91
2022-08-17T00:05:31.391Z,23.93
2022-08-17T00:06:31.387Z,23.91
2022-08-17T00:07:31.371Z,23.93
2022-08-17T00:08:31.359Z,23.93
2022-08-17T00:09:31.370Z,23.91
2022-08-17T00:10:32.471Z,23.91
2022-08-17T00:11:31.330Z,23.93
2022-08-17T00:12:42.766Z,23.91
2022-08-17T00:13:32.324Z,23.91
2022-08-17T00:14:31.296Z,23.91
2022-08-17T00:15:31.291Z,23.91
2022-08-17T00:16:50.489Z,23.93
2022-08-17T00:17:32.265Z,23.91
2022-08-17T00:18:58.404Z,23.91
2022-08-17T00:19:32.246Z,23.91
2022-08-17T00:20:33.609Z,23.93
2022-08-17T00:21:57.906Z,23.93
2022-08-17T00:22:36.331Z,23.93
2022-08-17T00:23:31.222Z,23.91
2022-08-17T00:24:31.193Z,23.91
2022-08-17T00:25:31.185Z,23.93
2022-08-17T00:26:44.341Z,23.90
2022-08-17T00:27:32.172Z,23.91
2022-08-17T00:28:31.172Z,23.91
2022-08-17T00:29:31.141Z,23.90
2022-08-17T00:30:31.132Z,23.91
2022-08-17T00:31:32.118Z,23.90
2022-08-17T00:33:15.124Z,23.90
2022-08-17T00:33:32.121Z,23.91
2022-08-17T00:34:31.087Z,23.93
2022-08-17T00:35:31.077Z,23.90
2022-08-17T00:36:31.070Z,23.90
2022-08-17T00:37:31.063Z,23.90
2022-08-17T00:38:31.046Z,23.91
2022-08-17T00:39:31.116Z,23.90
2022-08-17T00:40:40.018Z,23.90
2022-08-17T00:41:32.015Z,23.91
2022-08-17T00:42:31.431Z,23.91
2022-08-17T00:43:30.991Z,23.93
2022-08-17T00:44:31.247Z,23.91
2022-08-17T00:45:30.972Z,23.90
2022-08-17T00:46:30.960Z,23.91
2022-08-17T00:47:30.951Z,23.90
2022-08-17T00:48:31.029Z,23.90
2022-08-17T00:49:30.950Z,23.90
2022-08-17T00:50:30.919Z,23.91
2022-08-17T00:51:30.910Z,23.91
2022-08-17T00:52:30.916Z,23.91
2022-08-17T00:53:30.893Z,23.90
2022-08-17T00:54:30.878Z,23.91
2022-08-17T00:55:30.867Z,23.90
2022-08-17T00:56:30.879Z,23.90
2022-08-17T00:57:30.848Z,23.91
2022-08-17T00:58:36.182Z,23.91
2022-08-17T00:59:31.829Z,23.91
2022-08-17T01:00:30.814Z,23.91
2022-08-17T01:01:30.834Z,23.90
2022-08-17T01:02:30.816Z,23.91
2022-08-17T01:03:30.787Z,23.91
2022-08-17T01:04:30.774Z,23.91
2022-08-17T01:05:30.764Z,23.91
2022-08-17T01:06:30.752Z,23.90
2022-08-17T01:07:30.740Z,23.91
2022-08-17T01:08:30.749Z,23.90
2022-08-17T01:09:30.721Z,23.91
2022-08-17T01:10:59.610Z,23.90
2022-08-17T01:11:31.703Z,23.90
2022-08-17T01:12:30.705Z,23.88
2022-08-17T01:13:30.680Z,23.90
2022-08-17T01:14:30.669Z,23.90
2022-08-17T01:15:30.658Z,23.91
2022-08-17T01:16:30.677Z,23.90
2022-08-17T01:17:30.641Z,23.91
2022-08-17T01:18:30.624Z,23.90
2022-08-17T01:19:30.616Z,23.88
2022-08-17T01:20:30.607Z,23.90
2022-08-17T01:21:31.612Z,23.90
2022-08-17T01:22:30.604Z,23.90
2022-08-17T01:23:30.572Z,23.90
2022-08-17T01:24:30.565Z,23.90
2022-08-17T01:25:30.551Z,23.90
2022-08-17T01:26:30.564Z,23.91
2022-08-17T01:27:30.530Z,23.90
2022-08-17T01:28:33.613Z,23.90
2022-08-17T01:29:31.511Z,23.90
2022-08-17T01:30:57.810Z,23.90
2022-08-17T01:31:31.531Z,23.90
2022-08-17T01:32:30.482Z,23.90
2022-08-17T01:33:30.468Z,23.90
2022-08-17T01:34:42.807Z,23.91
2022-08-17T01:35:31.446Z,23.88
2022-08-17T01:36:30.464Z,23.90
2022-08-17T01:37:30.446Z,23.90
2022-08-17T01:38:30.418Z,23.90
2022-08-17T01:39:30.458Z,23.90
2022-08-17T01:40:30.396Z,23.90
2022-08-17T01:41:30.386Z,23.90
2022-08-17T01:42:30.375Z,23.91
2022-08-17T01:43:30.364Z,23.90
2022-08-17T01:44:30.356Z,23.90
2022-08-17T01:45:30.371Z,23.90
2022-08-17T01:46:30.334Z,23.90
2022-08-17T01:47:30.322Z,23.90
2022-08-17T01:48:30.313Z,23.90
2022-08-17T01:49:30.301Z,23.90
2022-08-17T01:50:30.293Z,23.90
2022-08-17T01:51:30.305Z,23.88
2022-08-17T01:52:30.269Z,23.90
2022-08-17T01:53:30.259Z,23.90
2022-08-17T01:54:30.249Z,23.90
2022-08-17T01:55:30.262Z,23.88
2022-08-17T01:56:30.229Z,23.90
2022-08-17T01:57:30.219Z,23.90
2022-08-17T01:58:30.206Z,23.90
2022-08-17T01:59:30.196Z,23.90
2022-08-17T02:00:59.474Z,23.90
2022-08-17T02:01:31.260Z,23.90
2022-08-17T02:02:31.571Z,23.88
2022-08-17T02:03:30.156Z,23.90
2022-08-17T02:04:30.143Z,23.91
2022-08-17T02:05:30.133Z,23.90
2022-08-17T02:06:30.142Z,23.88
2022-08-17T02:07:30.112Z,23.90
2022-08-17T02:08:38.896Z,23.90
2022-08-17T02:09:31.092Z,23.90
2022-08-17T02:10:33.740Z,23.90
2022-08-17T02:11:30.103Z,23.91
2022-08-17T02:12:38.154Z,23.90
2022-08-17T02:13:31.049Z,23.90
2022-08-17T02:14:30.039Z,23.90
2022-08-17T02:15:30.032Z,23.90
2022-08-17T02:16:37.814Z,23.90
2022-08-17T02:17:31.030Z,23.90
2022-08-17T02:18:30.018Z,23.90
2022-08-17T02:19:29.988Z,23.88
2022-08-17T02:20:42.140Z,23.88
2022-08-17T02:21:30.965Z,23.88
2022-08-17T02:22:29.954Z,23.90
2022-08-17T02:23:29.944Z,23.90
2022-08-17T02:25:00.983Z,23.88
2022-08-17T02:25:30.926Z,23.90
2022-08-17T02:26:29.912Z,23.88
2022-08-17T02:27:29.923Z,23.88
2022-08-17T02:28:29.894Z,23.88
2022-08-17T02:29:29.880Z,23.90
2022-08-17T02:30:59.056Z,23.90
2022-08-17T02:31:30.860Z,23.91
2022-08-17T02:32:29.869Z,23.88
2022-08-17T02:33:43.089Z,23.90
2022-08-17T02:34:30.830Z,23.88
2022-08-17T02:35:29.817Z,23.88
2022-08-17T02:36:29.810Z,23.90
2022-08-17T02:37:29.797Z,23.90
2022-08-17T02:38:29.807Z,23.88
2022-08-17T02:39:29.848Z,23.88
2022-08-17T02:40:36.185Z,23.90
2022-08-17T02:41:30.756Z,23.88
2022-08-17T02:42:29.747Z,23.88
2022-08-17T02:43:29.733Z,23.90
2022-08-17T02:44:39.045Z,23.88
2022-08-17T02:45:30.712Z,23.90
2022-08-17T02:46:29.710Z,23.90
2022-08-17T02:47:29.696Z,23.88
2022-08-17T02:48:31.683Z,23.88
2022-08-17T02:49:29.672Z,23.87
2022-08-17T02:50:29.681Z,23.88
2022-08-17T02:51:29.650Z,23.88
2022-08-17T02:52:43.335Z,23.88
2022-08-17T02:53:35.862Z,23.88
2022-08-17T02:54:39.342Z,23.88
2022-08-17T02:55:30.625Z,23.88
2022-08-17T02:56:29.602Z,23.88
2022-08-17T02:57:29.586Z,23.88
2022-08-17T02:58:35.675Z,23.88
2022-08-17T02:59:30.566Z,23.90
2022-08-17T03:00:29.574Z,23.88
2022-08-17T03:01:29.623Z,23.88
2022-08-17T03:02:29.538Z,23.88
2022-08-17T03:03:29.547Z,23.88
2022-08-17T03:04:29.515Z,23.90
2022-08-17T03:05:29.501Z,23.88
2022-08-17T03:06:29.491Z,23.88
2022-08-17T03:07:29.480Z,23.88
2022-08-17T03:08:29.474Z,23.88
2022-08-17T03:09:29.480Z,23.88
2022-08-17T03:10:29.449Z,23.87
2022-08-17T03:11:29.440Z,23.87
2022-08-17T03:12:29.428Z,23.87
2022-08-17T03:13:29.436Z,23.88
2022-08-17T03:14:29.409Z,23.88
2022-08-17T03:15:29.397Z,23.88
2022-08-17T03:16:29.411Z,23.87
2022-08-17T03:17:29.376Z,23.88
2022-08-17T03:18:29.365Z,23.87
2022-08-17T03:19:29.354Z,23.88
2022-08-17T03:20:29.350Z,23.88
2022-08-17T03:21:29.333Z,23.87
2022-08-17T03:22:36.971Z,23.87
2022-08-17T03:23:30.471Z,23.87
2022-08-17T03:24:29.321Z,23.87
2022-08-17T03:25:29.296Z,23.87
2022-08-17T03:26:29.742Z,23.88
2022-08-17T03:27:29.300Z,23.87
2022-08-17T03:28:29.264Z,23.87
2022-08-17T03:29:29.250Z,23.87
2022-08-17T03:30:29.239Z,23.87
2022-08-17T03:31:29.229Z,23.87
2022-08-17T03:32:29.221Z,23.87
2022-08-17T03:33:29.229Z,23.87
2022-08-17T03:34:29.202Z,23.87
2022-08-17T03:35:29.187Z,23.87
2022-08-17T03:36:29.201Z,23.88
2022-08-17T03:37:29.165Z,23.87
2022-08-17T03:38:29.156Z,23.87
2022-08-17T03:39:30.212Z,23.88
2022-08-17T03:40:34.536Z,23.87
2022-08-17T03:41:30.148Z,23.88
2022-08-17T03:42:32.040Z,23.88
2022-08-17T03:43:29.103Z,23.88
2022-08-17T03:44:29.094Z,23.88
2022-08-17T03:45:29.082Z,23.87
2022-08-17T03:46:35.003Z,23.88
2022-08-17T03:47:30.084Z,23.88
2022-08-17T03:48:29.051Z,23.87
2022-08-17T03:49:29.041Z,23.87
2022-08-17T03:50:29.031Z,23.87
2022-08-17T03:51:29.019Z,23.88
2022-08-17T03:52:29.031Z,23.88
2022-08-17T03:53:28.998Z,23.88
2022-08-17T03:54:29.015Z,23.88
2022-08-17T03:55:35.945Z,23.87
2022-08-17T03:56:29.965Z,23.88
2022-08-17T03:57:28.959Z,23.88
2022-08-17T03:58:28.948Z,23.87
2022-08-17T03:59:28.936Z,23.87
2022-08-17T04:00:28.946Z,23.87
2022-08-17T04:01:28.994Z,23.88
2022-08-17T04:02:28.905Z,23.87
2022-08-17T04:03:28.895Z,23.87
2022-08-17T04:04:28.906Z,23.87
2022-08-17T04:05:28.873Z,23.85
2022-08-17T04:06:28.863Z,23.88
2022-08-17T04:07:28.851Z,23.88
2022-08-17T04:08:28.841Z,23.87
2022-08-17T04:09:28.832Z,23.88
2022-08-17T04:10:28.839Z,23.87
2022-08-17T04:11:29.809Z,23.88
2022-08-17T04:12:28.820Z,23.87
2022-08-17T04:13:28.790Z,23.88
2022-08-17T04:14:28.781Z,23.88
2022-08-17T04:15:28.767Z,23.88
2022-08-17T04:16:28.761Z,23.88
2022-08-17T04:17:28.746Z,23.87
2022-08-17T04:18:28.764Z,23.88
2022-08-17T04:19:28.725Z,23.87
2022-08-17T04:20:28.734Z,23.88
2022-08-17T04:21:28.704Z,23.87
2022-08-17T04:22:32.572Z,23.88
2022-08-17T04:23:29.683Z,23.88
2022-08-17T04:24:28.674Z,23.88
2022-08-17T04:25:28.681Z,23.88
2022-08-17T04:26:53.631Z,23.88
2022-08-17T04:27:29.670Z,23.88
2022-08-17T04:28:28.640Z,23.87
2022-08-17T04:29:28.626Z,23.88
2022-08-17T04:30:29.612Z,23.88
2022-08-17T04:31:28.599Z,23.87
2022-08-17T04:33:10.825Z,23.88
2022-08-17T04:33:29.597Z,23.88
2022-08-17T04:34:28.569Z,23.88
2022-08-17T04:35:28.559Z,23.87
2022-08-17T04:36:28.550Z,23.88
2022-08-17T04:37:28.537Z,23.87
2022-08-17T04:38:28.545Z,23.87
2022-08-17T04:39:28.538Z,23.87
2022-08-17T04:40:28.525Z,23.88
2022-08-17T04:41:28.514Z,23.87
2022-08-17T04:42:28.487Z,23.87
2022-08-17T04:43:28.474Z,23.88
2022-08-17T04:44:37.771Z,23.88
2022-08-17T04:45:32.104Z,23.87
2022-08-17T04:46:28.462Z,23.87
2022-08-17T04:47:28.432Z,23.88
2022-08-17T04:48:35.582Z,23.87
2022-08-17T04:49:29.411Z,23.87
2022-08-17T04:50:28.404Z,23.87
2022-08-17T04:51:28.413Z,23.85
2022-08-17T04:52:32.296Z,23.87
2022-08-17T04:53:29.372Z,23.87
2022-08-17T04:54:28.363Z,23.88
2022-08-17T04:55:28.349Z,23.87
2022-08-17T04:56:28.341Z,23.87
2022-08-17T04:57:28.350Z,23.85
2022-08-17T04:58:28.320Z,23.88
2022-08-17T04:59:28.306Z,23.87
2022-08-17T05:00:28.297Z,23.87
2022-08-17T05:01:28.405Z,23.85
2022-08-17T05:02:28.279Z,23.87
2022-08-17T05:03:28.266Z,23.87
2022-08-17T05:04:35.113Z,23.87
2022-08-17T05:05:29.243Z,23.87
2022-08-17T05:06:28.260Z,23.87
2022-08-17T05:07:31.455Z,23.87
2022-08-17T05:08:28.217Z,23.87
2022-08-17T05:09:28.203Z,23.87
2022-08-17T05:10:28.192Z,23.85
2022-08-17T05:11:28.206Z,23.87
2022-08-17T05:12:28.171Z,23.87
2022-08-17T05:13:28.161Z,23.87
2022-08-17T05:14:33.188Z,23.87
2022-08-17T05:15:29.143Z,23.87
2022-08-17T05:16:28.129Z,23.87
2022-08-17T05:17:28.144Z,23.87
2022-08-17T05:18:28.115Z,23.87
2022-08-17T05:19:28.098Z,23.87
2022-08-17T05:20:28.090Z,23.88
2022-08-17T05:21:28.100Z,23.87
2022-08-17T05:22:28.067Z,23.87
2022-08-17T05:23:34.945Z,23.87
2022-08-17T05:24:40.765Z,23.87
2022-08-17T05:25:29.035Z,23.85
2022-08-17T05:26:29.387Z,23.87
2022-08-17T05:27:28.034Z,23.87
2022-08-17T05:28:29.009Z,23.85
2022-08-17T05:29:33.622Z,23.87
2022-08-17T05:30:28.983Z,23.85
2022-08-17T05:31:27.976Z,23.85
2022-08-17T05:32:37.951Z,23.87
2022-08-17T05:33:28.958Z,23.87
2022-08-17T05:34:27.942Z,23.85
2022-08-17T05:35:27.931Z,23.88
2022-08-17T05:36:43.623Z,23.87
2022-08-17T05:37:28.910Z,23.87
2022-08-17T05:38:27.902Z,23.87
2022-08-17T05:39:27.960Z,23.87
2022-08-17T05:40:27.881Z,23.87
2022-08-17T05:41:28.887Z,23.87
2022-08-17T05:42:27.860Z,23.87
2022-08-17T05:43:27.870Z,23.87
2022-08-17T05:44:27.843Z,23.87
2022-08-17T05:45:55.279Z,23.87
2022-08-17T05:46:28.818Z,23.88
2022-08-17T05:47:27.806Z,23.87
2022-08-17T05:48:39.364Z,23.87
2022-08-17T05:49:28.813Z,23.87
2022-08-17T05:50:29.870Z,23.87
2022-08-17T05:51:27.764Z,23.85
2022-08-17T05:52:27.757Z,23.87
2022-08-17T05:53:27.745Z,23.87
2022-08-17T05:54:27.757Z,23.87
2022-08-17T05:55:27.723Z,23.87
2022-08-17T05:56:30.235Z,23.88
2022-08-17T05:57:27.704Z,23.88
2022-08-17T05:58:27.695Z,23.87
2022-08-17T05:59:27.681Z,23.87
2022-08-17T06:00:30.540Z,23.87
2022-08-17T06:01:27.695Z,23.87
2022-08-17T06:02:27.656Z,23.87
2022-08-17T06:03:27.641Z,23.88
2022-08-17T06:04:27.654Z,23.88
2022-08-17T06:05:27.618Z,23.87
2022-08-17T06:06:31.154Z,23.87
2022-08-17T06:07:27.602Z,23.87
2022-08-17T06:08:27.587Z,23.88
2022-08-17T06:09:33.003Z,23.88
2022-08-17T06:10:28.601Z,23.88
2022-08-17T06:11:27.578Z,23.88
2022-08-17T06:12:27.550Z,23.88
2022-08-17T06:13:27.537Z,23.88
2022-08-17T06:14:27.526Z,23.88
2022-08-17T06:15:27.515Z,23.88
2022-08-17T06:16:34.267Z,23.90
2022-08-17T06:17:28.522Z,23.88
2022-08-17T06:18:27.483Z,23.88
2022-08-17T06:19:27.471Z,23.88
2022-08-17T06:20:27.572Z,23.88
2022-08-17T06:21:31.952Z,23.90
2022-08-17T06:22:27.441Z,23.88
2022-08-17T06:23:27.454Z,23.90
2022-08-17T06:24:27.427Z,23.90
2022-08-17T06:25:27.409Z,23.90
2022-08-17T06:26:31.231Z,23.90
2022-08-17T06:27:28.388Z,23.88
2022-08-17T06:28:27.378Z,23.88
2022-08-17T06:29:27.396Z,23.90
2022-08-17T06:30:27.468Z,23.90
2022-08-17T06:31:27.348Z,23.88
2022-08-17T06:32:27.339Z,23.90
2022-08-17T06:33:27.326Z,23.90
2022-08-17T06:34:27.338Z,23.90
2022-08-17T06:35:32.112Z,23.90
2022-08-17T06:36:28.300Z,23.90
2022-08-17T06:37:27.285Z,23.90
2022-08-17T06:38:37.216Z,23.90
2022-08-17T06:39:28.364Z,23.90
2022-08-17T06:40:27.364Z,23.90
2022-08-17T06:41:27.243Z,23.90
2022-08-17T06:42:55.042Z,23.90
2022-08-17T06:43:28.240Z,23.90
2022-08-17T06:44:49.647Z,23.90
2022-08-17T06:45:28.201Z,23.90
2022-08-17T06:46:27.192Z,23.90
2022-08-17T06:47:28.473Z,23.90
2022-08-17T06:48:27.169Z,23.88
2022-08-17T06:49:27.164Z,23.90
2022-08-17T06:50:27.290Z,23.88
2022-08-17T06:51:27.140Z,23.90
2022-08-17T06:52:42.173Z,23.88
2022-08-17T06:53:28.121Z,23.91
2022-08-17T06:54:27.106Z,23.90
2022-08-17T06:55:27.098Z,23.90
2022-08-17T06:56:27.106Z,23.91
2022-08-17T06:57:28.076Z,23.90
2022-08-17T06:58:28.968Z,23.90
2022-08-17T06:59:34.768Z,23.91
2022-08-17T07:00:28.130Z,23.88
2022-08-17T07:01:27.213Z,23.90
2022-08-17T07:02:29.095Z,23.90
2022-08-17T07:03:28.033Z,23.90
2022-08-17T07:04:27.005Z,23.91
2022-08-17T07:05:26.992Z,23.90
2022-08-17T07:06:26.983Z,23.90
2022-08-17T07:07:26.973Z,23.91
2022-08-17T07:08:31.188Z,23.91
2022-08-17T07:09:27.956Z,23.90
2022-08-17T07:10:26.940Z,23.90
2022-08-17T07:11:26.932Z,23.91
2022-08-17T07:12:26.939Z,23.90
2022-08-17T07:13:26.920Z,23.90
2022-08-17T07:14:26.900Z,23.91
2022-08-17T07:15:26.889Z,23.90
2022-08-17T07:16:26.898Z,23.91
2022-08-17T07:17:46.894Z,23.90
2022-08-17T07:18:27.857Z,23.90
2022-08-17T07:19:26.853Z,23.91
2022-08-17T07:20:26.835Z,23.90
2022-08-17T07:21:26.941Z,23.90
2022-08-17T07:22:26.833Z,23.91
2022-08-17T07:23:26.805Z,23.90
2022-08-17T07:24:30.005Z,23.91
2022-08-17T07:25:26.784Z,23.91
2022-08-17T07:26:26.773Z,23.91
2022-08-17T07:27:26.763Z,23.91
2022-08-17T07:28:26.771Z,23.90
2022-08-17T07:29:26.743Z,23.90
2022-08-17T07:30:26.732Z,23.91
2022-08-17T07:31:26.727Z,23.93
2022-08-17T07:32:26.730Z,23.91
2022-08-17T07:33:26.701Z,23.90
2022-08-17T07:34:26.689Z,23.91
2022-08-17T07:35:31.376Z,23.90
2022-08-17T07:36:29.970Z,23.90
2022-08-17T07:37:26.681Z,23.91
2022-08-17T07:38:27.130Z,23.91
2022-08-17T07:39:26.717Z,23.90
2022-08-17T07:40:26.728Z,23.91
2022-08-17T07:41:26.618Z,23.90
2022-08-17T07:42:27.604Z,23.90
2022-08-17T07:43:26.617Z,23.91
2022-08-17T07:44:26.586Z,23.90
2022-08-17T07:45:26.579Z,23.91
2022-08-17T07:46:26.583Z,23.91
2022-08-17T07:47:26.556Z,23.91
2022-08-17T07:48:26.543Z,23.93
2022-08-17T07:49:26.538Z,23.93
2022-08-17T07:50:27.628Z,23.93
2022-08-17T07:51:26.535Z,23.93
2022-08-17T07:52:50.313Z,23.91
2022-08-17T07:53:27.491Z,23.93
2022-08-17T07:54:26.480Z,23.93
2022-08-17T07:55:26.470Z,23.91
2022-08-17T07:56:26.482Z,23.91
2022-08-17T07:57:30.033Z,23.91
2022-08-17T07:58:26.439Z,23.93
2022-08-17T07:59:27.254Z,23.91
2022-08-17T08:00:32.331Z,23.93
2022-08-17T08:01:27.449Z,23.91
2022-08-17T08:02:31.681Z,23.93
2022-08-17T08:03:28.454Z,23.91
2022-08-17T08:04:59.262Z,23.93
2022-08-17T08:05:48.819Z,23.93
2022-08-17T08:06:27.377Z,23.93
2022-08-17T08:07:26.357Z,23.93
2022-08-17T08:08:26.338Z,23.93
2022-08-17T08:09:26.323Z,23.93
2022-08-17T08:10:26.316Z,23.93
2022-08-17T08:11:26.301Z,23.93
2022-08-17T08:12:33.527Z,23.93
2022-08-17T08:13:27.279Z,23.93
2022-08-17T08:14:28.703Z,23.93
2022-08-17T08:15:26.259Z,23.93
2022-08-17T08:16:26.250Z,23.93
2022-08-17T08:17:26.241Z,23.93
2022-08-17T08:18:54.689Z,23.93
2022-08-17T08:19:27.219Z,23.93
2022-08-17T08:20:51.660Z,23.94
2022-08-17T08:21:27.196Z,23.93
2022-08-17T08:22:26.220Z,23.94
2022-08-17T08:23:26.176Z,23.93
2022-08-17T08:24:26.166Z,23.93
2022-08-17T08:25:28.810Z,23.94
2022-08-17T08:26:26.148Z,23.94
2022-08-17T08:27:26.134Z,23.94
2022-08-17T08:28:26.144Z,23.93
2022-08-17T08:29:26.112Z,23.93
2022-08-17T08:30:26.103Z,23.94
2022-08-17T08:31:26.096Z,23.95
2022-08-17T08:32:26.086Z,23.94
2022-08-17T08:33:26.097Z,23.94
2022-08-17T08:34:47.392Z,23.95
2022-08-17T08:35:27.050Z,23.94
2022-08-17T08:37:02.091Z,23.95
2022-08-17T08:37:33.887Z,23.94
2022-08-17T08:38:27.038Z,23.94
2022-08-17T08:39:26.096Z,23.95
2022-08-17T08:40:25.995Z,23.94
2022-08-17T08:41:25.984Z,23.95
2022-08-17T08:42:25.982Z,23.95
2022-08-17T08:43:25.964Z,23.94
2022-08-17T08:44:59.878Z,23.94
2022-08-17T08:45:26.943Z,23.94
2022-08-17T08:46:25.936Z,23.95
2022-08-17T08:47:25.922Z,23.94
2022-08-17T08:48:53.323Z,23.95
2022-08-17T08:49:59.007Z,23.95
2022-08-17T08:50:37.060Z,23.95
2022-08-17T08:51:26.879Z,23.95
2022-08-17T08:52:25.874Z,23.95
2022-08-17T08:53:25.876Z,23.95
2022-08-17T08:54:26.555Z,23.95
2022-08-17T08:55:25.857Z,23.94
2022-08-17T08:56:25.830Z,23.95
2022-08-17T08:57:32.806Z,23.94
2022-08-17T08:58:31.743Z,23.95
2022-08-17T08:59:26.821Z,23.97
2022-08-17T09:00:25.787Z,23.95
2022-08-17T09:01:25.817Z,23.98
2022-08-17T09:02:25.767Z,23.97
2022-08-17T09:03:51.277Z,23.94
2022-08-17T09:04:26.743Z,23.95
2022-08-17T09:05:25.752Z,23.95
2022-08-17T09:06:37.580Z,23.95
2022-08-17T09:07:26.728Z,23.97
2022-08-17T09:08:25.702Z,23.95
2022-08-17T09:09:25.693Z,23.95
2022-08-17T09:10:25.682Z,23.97
2022-08-17T09:11:25.689Z,23.95
2022-08-17T09:12:25.681Z,23.97
2022-08-17T09:13:25.647Z,23.95
2022-08-17T09:14:28.666Z,23.95
2022-08-17T09:15:25.646Z,23.97
2022-08-17T09:16:25.620Z,23.95
2022-08-17T09:17:25.639Z,23.97
2022-08-17T09:19:02.719Z,23.97
2022-08-17T09:19:26.585Z,23.95
2022-08-17T09:20:28.319Z,23.94
2022-08-17T09:21:25.566Z,23.97
2022-08-17T09:22:25.560Z,23.97
2022-08-17T09:23:25.562Z,23.94
2022-08-17T09:24:25.556Z,23.95
2022-08-17T09:25:25.522Z,23.97
2022-08-17T09:26:25.511Z,23.94
2022-08-17T09:27:25.506Z,23.95
2022-08-17T09:28:25.491Z,23.95
2022-08-17T09:29:25.476Z,23.95
2022-08-17T09:30:25.488Z,23.95
2022-08-17T09:31:29.947Z,23.95
2022-08-17T09:32:26.444Z,23.94
2022-08-17T09:33:25.451Z,23.95
2022-08-17T09:34:32.050Z,23.97
2022-08-17T09:35:32.911Z,23.95
2022-08-17T09:36:26.401Z,23.95
2022-08-17T09:37:25.391Z,23.97
2022-08-17T09:38:28.092Z,23.95
2022-08-17T09:39:26.442Z,23.95
2022-08-17T09:40:25.384Z,23.95
2022-08-17T09:41:25.348Z,23.94
2022-08-17T09:42:25.338Z,23.95
2022-08-17T09:43:25.328Z,23.95
2022-08-17T09:44:25.322Z,23.95
2022-08-17T09:45:25.308Z,23.95
2022-08-17T09:46:25.320Z,23.94
2022-08-17T09:47:25.285Z,23.94
2022-08-17T09:48:25.275Z,23.94
2022-08-17T09:49:25.469Z,23.95
2022-08-17T09:51:05.074Z,23.95
2022-08-17T09:51:26.264Z,23.95
2022-08-17T09:52:25.231Z,23.94
2022-08-17T09:53:25.219Z,23.95
2022-08-17T09:54:39.070Z,23.95
2022-08-17T09:55:26.196Z,23.95
2022-08-17T09:56:25.187Z,23.94
2022-08-17T09:57:32.674Z,23.95
2022-08-17T09:58:29.142Z,23.94
2022-08-17T09:59:25.175Z,23.94
2022-08-17T10:00:25.170Z,23.94
2022-08-17T10:01:25.230Z,23.94
2022-08-17T10:02:25.148Z,23.94
2022-08-17T10:03:25.139Z,23.95
2022-08-17T10:04:29.555Z,23.94
2022-08-17T10:05:25.091Z,23.94
2022-08-17T10:06:25.081Z,23.94
2022-08-17T10:07:25.071Z,23.94
2022-08-17T10:08:25.062Z,23.93
2022-08-17T10:09:25.067Z,23.95
2022-08-17T10:10:25.042Z,23.95
2022-08-17T10:11:33.785Z,23.94
2022-08-17T10:12:30.283Z,23.95
2022-08-17T10:13:25.014Z,23.94
2022-08-17T10:14:37.583Z,23.94
2022-08-17T10:15:25.984Z,23.94
2022-08-17T10:16:24.976Z,23.94
2022-08-17T10:17:24.986Z,23.94
2022-08-17T10:18:24.960Z,23.95
2022-08-17T10:19:25.942Z,23.94
2022-08-17T10:20:24.937Z,23.94
2022-08-17T10:21:24.922Z,23.94
2022-08-17T10:22:35.222Z,23.94
2022-08-17T10:23:25.900Z,23.94
2022-08-17T10:24:24.892Z,23.95
2022-08-17T10:25:30.210Z,23.94
2022-08-17T10:26:25.891Z,23.95
2022-08-17T10:27:24.859Z,23.94
2022-08-17T10:28:29.504Z,23.95
2022-08-17T10:29:25.837Z,23.94
2022-08-17T10:30:24.831Z,23.94
2022-08-17T10:31:40.252Z,23.95
2022-08-17T10:32:25.804Z,23.94
2022-08-17T10:33:24.795Z,23.94
2022-08-17T10:34:24.804Z,23.94
2022-08-17T10:35:24.772Z,23.95
2022-08-17T10:36:24.761Z,23.94
2022-08-17T10:37:24.753Z,23.94
2022-08-17T10:38:24.855Z,23.95
2022-08-17T10:39:24.754Z,23.94
2022-08-17T10:40:24.850Z,23.94
2022-08-17T10:41:24.707Z,23.94
2022-08-17T10:42:30.375Z,23.94
2022-08-17T10:43:25.687Z,23.94
2022-08-17T10:44:40.271Z,23.94
2022-08-17T10:45:25.682Z,23.95
2022-08-17T10:46:31.352Z,23.95
2022-08-17T10:47:25.660Z,23.95
2022-08-17T10:48:24.635Z,23.93
2022-08-17T10:49:24.626Z,23.93
2022-08-17T10:50:24.611Z,23.94
2022-08-17T10:51:24.601Z,23.94
2022-08-17T10:52:24.912Z,23.94
2022-08-17T10:53:24.580Z,23.94
2022-08-17T10:54:24.592Z,23.94
2022-08-17T10:55:24.559Z,23.94
2022-08-17T10:56:24.552Z,23.94
2022-08-17T10:57:24.539Z,23.94
2022-08-17T10:58:24.548Z,23.94
2022-08-17T10:59:24.518Z,23.94
2022-08-17T11:00:27.619Z,23.94
2022-08-17T11:01:24.556Z,23.94
2022-08-17T11:02:24.484Z,23.93
2022-08-17T11:03:24.475Z,23.95
2022-08-17T11:04:25.113Z,23.95
2022-08-17T11:05:24.475Z,23.94
2022-08-17T11:06:24.441Z,23.95
2022-08-17T11:07:24.450Z,23.94
2022-08-17T11:08:24.419Z,23.95
2022-08-17T11:09:24.429Z,23.94
2022-08-17T11:10:24.420Z,23.94
2022-08-17T11:11:24.392Z,23.94
2022-08-17T11:12:24.378Z,23.94
2022-08-17T11:13:24.393Z,23.94
2022-08-17T11:14:24.356Z,23.94
2022-08-17T11:15:24.346Z,23.94
2022-08-17T11:16:24.335Z,23.95
2022-08-17T11:17:24.325Z,23.95
2022-08-17T11:18:24.318Z,23.94
2022-08-17T11:19:24.327Z,23.93
2022-08-17T11:20:24.294Z,23.94
2022-08-17T11:21:24.286Z,23.94
2022-08-17T11:22:24.290Z,23.94
2022-08-17T11:23:24.282Z,23.95
2022-08-17T11:24:24.249Z,23.93
2022-08-17T11:25:24.244Z,23.93
2022-08-17T11:26:24.230Z,23.94
2022-08-17T11:27:24.236Z,23.94
2022-08-17T11:28:24.228Z,23.94
2022-08-17T11:29:24.726Z,23.93
2022-08-17T11:30:24.186Z,23.94
2022-08-17T11:31:38.624Z,23.93
2022-08-17T11:32:25.164Z,23.93
2022-08-17T11:33:24.156Z,23.94
2022-08-17T11:34:24.165Z,23.94
2022-08-17T11:35:24.136Z,23.94
2022-08-17T11:36:24.120Z,23.94
2022-08-17T11:37:24.135Z,23.94
2022-08-17T11:38:24.099Z,23.94
2022-08-17T11:39:24.090Z,23.94
2022-08-17T11:40:24.080Z,23.93
2022-08-17T11:41:24.069Z,23.94
2022-08-17T11:42:24.065Z,23.94
2022-08-17T11:43:25.604Z,23.94
2022-08-17T11:44:24.042Z,23.93
2022-08-17T11:45:31.916Z,23.94
2022-08-17T11:46:25.015Z,23.93
2022-08-17T11:47:24.004Z,23.93
2022-08-17T11:48:28.393Z,23.95
2022-08-17T11:49:23.984Z,23.94
2022-08-17T11:50:27.702Z,23.94
2022-08-17T11:51:23.963Z,23.94
2022-08-17T11:52:23.950Z,23.93
2022-08-17T11:53:23.942Z,23.94
2022-08-17T11:54:33.311Z,23.93
2022-08-17T11:55:35.481Z,23.94
2022-08-17T11:56:24.908Z,23.93
2022-08-17T11:57:23.913Z,23.93
2022-08-17T11:58:23.887Z,23.93
2022-08-17T11:59:23.900Z,23.94
2022-08-17T12:00:23.865Z,23.93
2022-08-17T12:01:23.854Z,23.93
2022-08-17T12:02:23.844Z,23.94
2022-08-17T12:03:23.905Z,23.94
2022-08-17T12:04:23.883Z,23.93
2022-08-17T12:05:23.839Z,23.94
2022-08-17T12:06:23.801Z,23.94
2022-08-17T12:07:24.794Z,23.94
2022-08-17T12:08:23.783Z,23.94
2022-08-17T12:09:23.771Z,23.93
2022-08-17T12:10:23.783Z,23.93
2022-08-17T12:12:11.382Z,23.94
2022-08-17T12:12:24.739Z,23.93
2022-08-17T12:13:23.730Z,23.94
2022-08-17T12:14:40.135Z,23.94
2022-08-17T12:15:24.732Z,23.94
2022-08-17T12:16:23.698Z,23.93
2022-08-17T12:17:51.901Z,23.94
2022-08-17T12:18:24.676Z,23.94
2022-08-17T12:19:23.671Z,23.95
2022-08-17T12:20:23.655Z,23.93
2022-08-17T12:21:23.664Z,23.94
2022-08-17T12:22:23.636Z,23.94
2022-08-17T12:23:23.627Z,23.95
2022-08-17T12:24:23.613Z,23.95
2022-08-17T12:25:23.625Z,23.94
2022-08-17T12:26:23.594Z,23.93
2022-08-17T12:28:02.740Z,23.94
2022-08-17T12:28:24.572Z,23.94
2022-08-17T12:29:38.293Z,23.94
2022-08-17T12:30:24.570Z,23.95
2022-08-17T12:31:23.539Z,23.94
2022-08-17T12:32:23.530Z,23.94
2022-08-17T12:33:25.220Z,23.94
2022-08-17T12:34:23.507Z,23.94
2022-08-17T12:35:23.516Z,23.94
2022-08-17T12:36:23.486Z,23.97
2022-08-17T12:37:23.477Z,23.95
2022-08-17T12:38:26.866Z,23.97
2022-08-17T12:39:24.932Z,23.95
2022-08-17T12:40:23.463Z,23.97
2022-08-17T12:41:23.481Z,23.95
2022-08-17T12:42:23.421Z,23.95
2022-08-17T12:43:23.417Z,23.97
2022-08-17T12:44:23.412Z,23.98
2022-08-17T12:45:23.397Z,23.95
2022-08-17T12:46:23.380Z,23.95
2022-08-17T12:47:23.419Z,23.97
2022-08-17T12:48:23.359Z,23.95
2022-08-17T12:49:23.350Z,23.97
2022-08-17T12:50:29.120Z,23.97
2022-08-17T12:51:24.358Z,23.95
2022-08-17T12:52:23.316Z,23.97